Time;durP1;ratioP1;P1;durP2;ratioP2;P2;SDS_P1;SDS_P2;PMS_P1;PMS_P2;Temp;Humidity;BMP_temperature;BMP_pressure;BME280_temperature;BME280_humidity;BME280_pressure;Samples;Min_cycle;Max_cycle;Signal;HPM_P1;HPM_P2
2022/02/20 00:00:30;;;;;;;4.88;0.85;;;;;;;-142.75;100.00;77814.56;5028550;28;20086;-68
2022/02/20 00:02:55;;;;;;;3.78;0.50;;;;;;;-142.75;100.00;77824.41;5026977;28;20029;-69
2022/02/20 00:05:21;;;;;;;4.15;0.60;;;;;;;-142.75;100.00;77822.44;5028221;28;20044;-68
2022/02/20 00:07:46;;;;;;;8.63;0.95;;;;;;;-142.75;100.00;77826.38;5029603;28;20437;-70
2022/02/20 00:10:12;;;;;;;5.80;1.00;;;;;;;-142.75;100.00;77830.31;5031334;28;20056;-69
2022/02/20 00:12:37;;;;;;;8.85;1.15;;;;;;;-142.75;100.00;77836.22;5031303;28;20464;-71
2022/02/20 00:15:03;;;;;;;4.68;0.95;;;;;;;-142.75;100.00;77842.13;5031038;28;20018;-68
2022/02/20 00:17:29;;;;;;;5.80;0.73;;;;;;;-142.75;100.00;77863.78;5031081;28;20025;-69
2022/02/20 00:19:54;;;;;;;9.48;0.85;;;;;;;-142.75;100.00;77861.81;5029320;28;20086;-69
2022/02/20 00:22:19;;;;;;;4.77;0.77;;;;;;;-142.75;100.00;77861.81;5030751;28;20053;-69
2022/02/20 00:24:45;;;;;;;6.95;0.77;;;;;;;-142.75;100.00;77857.88;5036121;28;20311;-70
2022/02/20 00:27:10;;;;;;;9.20;0.90;;;;;;;-142.75;100.00;77855.91;5031002;28;20036;-68
2022/02/20 00:29:35;;;;;;;8.35;1.13;;;;;;;-142.75;100.00;77855.91;5030869;28;20076;-69
2022/02/20 00:32:00;;;;;;;9.38;0.90;;;;;;;-142.75;100.00;77863.78;5030675;28;20028;-70
2022/02/20 00:34:27;;;;;;;3.87;0.50;;;;;;;-142.75;100.00;77857.88;5030220;28;20118;-68
2022/02/20 00:36:52;;;;;;;5.00;1.10;;;;;;;-142.75;100.00;77865.75;5031822;28;20045;-69
2022/02/20 00:39:17;;;;;;;7.85;0.93;;;;;;;-142.75;100.00;77865.75;5031023;28;20025;-70
2022/02/20 00:41:43;;;;;;;5.17;0.60;;;;;;;-142.75;100.00;77865.75;5047590;22;20042;-68
2022/02/20 00:44:08;;;;;;;5.28;0.70;;;;;;;-142.75;100.00;77865.75;5031628;28;20711;-67
2022/02/20 00:46:34;;;;;;;6.22;0.60;;;;;;;-142.75;100.00;77861.81;5032204;28;20041;-67
2022/02/20 00:48:59;;;;;;;3.30;0.60;;;;;;;-142.75;100.00;77859.84;5032180;28;20029;-68
2022/02/20 00:51:24;;;;;;;2.90;0.60;;;;;;;-142.75;100.00;77853.94;5014798;28;20079;-67
2022/02/20 00:53:49;;;;;;;4.70;0.80;;;;;;;-142.75;100.00;77861.81;5014757;28;20283;-67
2022/02/20 00:56:15;;;;;;;5.50;0.73;;;;;;;-142.75;100.00;77853.94;5032290;28;20746;-67
2022/02/20 00:58:40;;;;;;;4.55;0.75;;;;;;;-142.75;100.00;77857.88;5032028;28;20034;-68
2022/02/20 01:01:05;;;;;;;5.28;0.65;;;;;;;-142.75;100.00;77857.88;5031987;28;20021;-68
2022/02/20 01:03:32;;;;;;;4.13;0.80;;;;;;;-142.75;100.00;77853.94;5014462;28;20091;-68
2022/02/20 01:05:58;;;;;;;1.13;0.37;;;;;;;-142.75;100.00;77857.88;5032172;28;20272;-68
2022/02/20 01:08:23;;;;;;;3.90;0.50;;;;;;;-142.75;100.00;77871.66;5031667;28;20047;-68
2022/02/20 01:10:48;;;;;;;2.43;0.40;;;;;;;-142.75;100.00;77853.94;5032345;28;20084;-68
2022/02/20 01:13:14;;;;;;;4.33;0.60;;;;;;;-142.75;100.00;77846.06;5032246;28;20275;-68
2022/02/20 01:15:39;;;;;;;3.70;0.52;;;;;;;-142.75;100.00;77840.16;5031962;28;20754;-68
2022/02/20 01:18:05;;;;;;;4.15;0.80;;;;;;;-142.75;100.00;77838.19;5031440;28;20294;-68
2022/02/20 01:20:30;;;;;;;2.80;0.60;;;;;;;-142.75;100.00;77842.13;5032037;28;20026;-68
2022/02/20 01:22:55;;;;;;;6.15;0.95;;;;;;;-142.75;100.00;77842.13;5031888;28;20025;-68
2022/02/20 01:25:21;;;;;;;4.03;0.50;;;;;;;-142.75;100.00;77820.47;5031844;28;20047;-68
2022/02/20 01:27:46;;;;;;;3.58;0.88;;;;;;;-142.75;100.00;77812.59;5031403;28;20292;-68
2022/02/20 01:30:11;;;;;;;2.93;0.70;;;;;;;-142.75;100.00;77812.59;5031664;28;20040;-68
2022/02/20 01:32:37;;;;;;;2.67;0.50;;;;;;;-142.75;100.00;77812.59;5031673;28;20302;-68
2022/02/20 01:35:04;;;;;;;5.87;0.73;;;;;;;-142.75;100.00;77822.44;5031652;28;20312;-68
2022/02/20 01:37:30;;;;;;;5.00;0.50;;;;;;;-142.75;100.00;77822.44;5031684;28;20614;-68
2022/02/20 01:39:55;;;;;;;6.20;0.60;;;;;;;-142.75;100.00;77818.50;5031377;28;20055;-68
2022/02/20 01:42:20;;;;;;;7.60;0.88;;;;;;;-142.75;100.00;77818.50;5031897;28;20380;-68
2022/02/20 01:44:46;;;;;;;3.20;0.65;;;;;;;-142.75;100.00;77826.38;5031423;28;20102;-68
2022/02/20 01:47:14;;;;;;;2.72;0.50;;;;;;;-142.75;100.00;77832.28;5031308;28;20025;-67
2022/02/20 01:49:39;;;;;;;6.17;0.70;;;;;;;-142.75;100.00;77830.31;5031227;28;20025;-68
2022/02/20 01:52:05;;;;;;;6.45;1.00;;;;;;;-142.75;100.00;77830.31;5013647;28;20034;-68
2022/02/20 01:54:30;;;;;;;5.93;0.93;;;;;;;-142.75;100.00;77836.22;5031342;28;20029;-68
2022/02/20 01:56:56;;;;;;;4.20;0.37;;;;;;;-142.75;100.00;77838.19;5031256;28;20104;-68
2022/02/20 01:59:24;;;;;;;4.00;0.52;;;;;;;-142.75;100.00;77853.94;5030847;28;20355;-68
2022/02/20 02:01:50;;;;;;;5.77;0.60;;;;;;;-142.75;100.00;77867.72;5030903;28;20057;-68
2022/02/20 02:04:16;;;;;;;5.50;0.90;;;;;;;-142.75;100.00;77861.81;5031121;28;20018;-68
2022/02/20 02:06:41;;;;;;;1.77;0.52;;;;;;;-142.75;100.00;77877.56;5030757;28;20040;-68
2022/02/20 02:09:07;;;;;;;4.27;0.60;;;;;;;-142.75;100.00;77875.59;5030790;28;20032;-68
2022/02/20 02:11:32;;;;;;;6.47;0.60;;;;;;;-142.75;100.00;77881.50;5031412;28;20029;-68
2022/02/20 02:13:57;;;;;;;4.13;0.65;;;;;;;-142.75;100.00;77877.56;5030968;28;20087;-67
2022/02/20 02:16:23;;;;;;;6.72;1.08;;;;;;;-142.75;100.00;77877.56;5030527;28;20025;-68
2022/02/20 02:18:48;;;;;;;3.55;0.70;;;;;;;-142.75;100.00;77881.50;5030523;28;20108;-68
2022/02/20 02:21:14;;;;;;;6.32;0.82;;;;;;;-142.75;100.00;77885.44;5030938;28;20057;-68
2022/02/20 02:23:39;;;;;;;8.30;1.08;;;;;;;-142.75;100.00;77877.56;5012951;28;20075;-68
2022/02/20 02:26:06;;;;;;;3.25;0.52;;;;;;;-142.75;100.00;77855.91;5029403;28;20025;-68
2022/02/20 02:28:34;;;;;;;4.40;0.70;;;;;;;-142.75;100.00;77863.78;5029723;28;20368;-67
2022/02/20 02:31:00;;;;;;;3.07;0.87;;;;;;;-142.75;100.00;77853.94;5030257;28;20403;-68
2022/02/20 02:33:33;;;;;;;5.00;0.90;;;;;;;-142.75;100.00;77844.09;5030605;28;20020;-68
2022/02/20 02:36:00;;;;;;;6.07;1.50;;;;;;;-142.75;100.00;77855.91;5030523;28;20026;-68
2022/02/20 02:38:26;;;;;;;3.97;1.00;;;;;;;-142.75;100.00;77850.00;5012379;28;20092;-68
2022/02/20 02:40:55;;;;;;;2.73;0.70;;;;;;;-142.75;100.00;77834.25;5030454;28;20411;-68
2022/02/20 02:43:20;;;;;;;5.73;1.20;;;;;;;-142.75;100.00;77828.34;5012735;28;20403;-68
2022/02/20 02:45:45;;;;;;;9.13;1.20;;;;;;;-142.75;100.00;77850.00;5012475;28;20026;-68
2022/02/20 02:48:11;;;;;;;7.23;1.67;;;;;;;-142.75;100.00;77848.03;5029942;28;20212;-67
2022/02/20 02:50:36;;;;;;;12.00;1.27;;;;;;;-142.75;100.00;77840.16;5030323;28;20765;-68
2022/02/20 02:53:01;;;;;;;8.47;1.00;;;;;;;-142.75;100.00;77838.19;5030221;28;20029;-68
2022/02/20 02:55:26;;;;;;;4.97;0.87;;;;;;;-142.75;100.00;77834.25;5030063;28;20291;-68
2022/02/20 02:57:52;;;;;;;5.03;1.13;;;;;;;-142.75;100.00;77861.81;5029747;28;20025;-67
2022/02/20 03:00:17;;;;;;;5.53;0.90;;;;;;;-142.75;100.00;77877.56;5012289;28;20025;-67
2022/02/20 03:02:43;;;;;;;5.70;0.88;;;;;;;-142.75;100.00;77877.56;5030256;28;20053;-68
2022/02/20 03:05:08;;;;;;;7.30;1.52;;;;;;;-142.75;100.00;77889.38;5029789;28;20087;-68
2022/02/20 03:07:34;;;;;;;11.27;2.20;;;;;;;-142.75;100.00;77877.56;5029903;28;20402;-68
2022/02/20 03:09:59;;;;;;;9.27;1.27;;;;;;;-142.75;100.00;77885.44;5029683;28;20546;-68
2022/02/20 03:12:24;;;;;;;6.45;1.25;;;;;;;-142.75;100.00;77895.28;5030250;28;20091;-68
2022/02/20 03:14:50;;;;;;;6.20;1.40;;;;;;;-142.75;100.00;77889.38;5029624;28;20025;-68
2022/02/20 03:17:15;;;;;;;6.93;2.17;;;;;;;-142.75;100.00;77869.69;5012110;28;20283;-68
2022/02/20 03:19:40;;;;;;;7.15;2.03;;;;;;;-142.75;100.00;77877.56;5029573;28;20025;-68
2022/02/20 03:22:06;;;;;;;7.50;2.40;;;;;;;-142.75;100.00;77871.66;5029906;28;20466;-68
2022/02/20 03:24:31;;;;;;;9.40;3.03;;;;;;;-142.75;100.00;77871.66;5029487;28;20021;-67
2022/02/20 03:26:57;;;;;;;6.93;2.40;;;;;;;-142.75;100.00;77853.94;5029575;28;20032;-68
2022/02/20 03:29:22;;;;;;;4.45;2.40;;;;;;;-142.75;100.00;77865.75;5011513;28;20490;-68
2022/02/20 03:31:47;;;;;;;9.27;2.50;;;;;;;-142.75;100.00;77869.69;5011923;28;20502;-68
2022/02/20 03:34:13;;;;;;;10.35;2.75;;;;;;;-142.75;100.00;77879.53;5029447;28;20040;-68
2022/02/20 03:36:38;;;;;;;8.95;2.92;;;;;;;-142.75;100.00;77877.56;5029677;28;20116;-67
2022/02/20 03:39:03;;;;;;;7.60;2.88;;;;;;;-142.75;100.00;77869.69;5028757;28;20025;-68
2022/02/20 03:41:29;;;;;;;13.07;3.47;;;;;;;-142.75;100.00;77873.63;5029321;28;20495;-68
2022/02/20 03:43:54;;;;;;;6.22;3.28;;;;;;;-142.75;100.00;77879.53;5029443;28;20124;-68
2022/02/20 03:46:20;;;;;;;7.63;3.35;;;;;;;-142.75;100.00;77881.50;5029354;28;20057;-68
2022/02/20 03:48:45;;;;;;;4.80;3.10;;;;;;;-142.75;100.00;77879.53;5029127;28;20030;-67
2022/02/20 03:51:10;;;;;;;6.57;3.13;;;;;;;-142.75;100.00;77877.56;5029502;28;20029;-68
2022/02/20 03:53:36;;;;;;;12.05;4.05;;;;;;;-142.75;100.00;77869.69;5011614;28;20392;-68
2022/02/20 03:56:01;;;;;;;12.98;3.63;;;;;;;-142.75;100.00;77867.72;5029378;28;20555;-67
2022/02/20 03:58:26;;;;;;;9.77;4.43;;;;;;;-142.75;100.00;77869.69;5028950;28;20026;-68
2022/02/20 04:00:51;;;;;;;6.93;3.93;;;;;;;-142.75;100.00;77873.63;5029364;28;20773;-67
2022/02/20 04:03:17;;;;;;;11.48;5.72;;;;;;;-142.75;100.00;77855.91;5028084;28;20029;-68
2022/02/20 04:05:42;;;;;;;11.85;4.97;;;;;;;-142.75;100.00;77857.88;5011648;28;20072;-68
2022/02/20 04:08:07;;;;;;;9.52;5.43;;;;;;;-142.75;100.00;77861.81;5028950;28;20021;-67
2022/02/20 04:10:34;;;;;;;24.48;5.75;;;;;;;-142.75;100.00;77861.81;5029182;28;20076;-68
2022/02/20 04:12:59;;;;;;;;;;;;;;;-142.75;100.00;77863.78;5030078;28;20533;-67
2022/02/20 04:15:25;;;;;;;11.80;5.50;;;;;;;-142.75;100.00;77861.81;5029334;28;19916;-68
2022/02/20 04:17:50;;;;;;;14.13;6.53;;;;;;;-142.75;100.00;77844.09;5029068;28;20064;-67
2022/02/20 04:20:18;;;;;;;16.40;6.93;;;;;;;-142.75;100.00;77842.13;5029084;28;20060;-68
2022/02/20 04:22:44;;;;;;;12.97;6.53;;;;;;;-142.75;100.00;77842.13;5029318;28;20037;-67
2022/02/20 04:25:12;;;;;;;;;;;;;;;-142.75;100.00;77834.25;5029750;28;20029;-68
2022/02/20 04:27:38;;;;;;;16.83;7.37;;;;;;;-142.75;100.00;77828.34;5028847;28;19925;-68
2022/02/20 04:30:04;;;;;;;;;;;;;;;-142.75;100.00;77822.44;5029282;28;20021;-67
2022/02/20 04:32:29;;;;;;;18.37;7.27;;;;;;;-142.75;100.00;77814.56;5028796;28;20019;-67
2022/02/20 04:34:54;;;;;;;15.27;7.55;;;;;;;-142.75;100.00;77812.59;5029075;28;20550;-68
2022/02/20 04:37:20;;;;;;;16.98;7.00;;;;;;;-142.75;100.00;77804.72;5029023;28;20487;-68
2022/02/20 04:39:45;;;;;;;18.00;7.30;;;;;;;-142.75;100.00;77806.69;5011298;28;20025;-68
2022/02/20 04:42:10;;;;;;;18.27;7.43;;;;;;;-142.75;100.00;77806.69;5029087;28;20064;-68
2022/02/20 04:44:36;;;;;;;15.73;7.20;;;;;;;-142.75;100.00;77785.03;5028999;28;20280;-68
2022/02/20 04:47:01;;;;;;;17.50;7.90;;;;;;;-142.75;100.00;77775.19;5029020;28;20065;-67
2022/02/20 04:49:26;;;;;;;21.77;7.55;;;;;;;-142.75;100.00;77775.19;5010907;28;20790;-68
2022/02/20 04:51:52;;;;;;;15.63;7.90;;;;;;;-142.75;100.00;77755.50;5013540;28;20029;-69
2022/02/20 04:54:17;;;;;;;19.15;7.28;;;;;;;-142.75;100.00;77747.63;5032692;28;20390;-68
2022/02/20 04:56:43;;;;;;;20.23;7.60;;;;;;;-142.75;100.00;77723.97;5032615;28;20083;-68
2022/02/20 04:59:13;;;;;;;17.58;6.63;;;;;;;-142.75;100.00;77698.38;5032159;28;20036;-68
2022/02/20 05:01:38;;;;;;;20.90;7.70;;;;;;;-142.75;100.00;77692.47;5032288;28;20037;-68
2022/02/20 05:04:04;;;;;;;19.13;7.60;;;;;;;-142.75;100.00;77684.59;5032318;28;20135;-68
2022/02/20 05:06:30;;;;;;;21.55;7.57;;;;;;;-142.75;100.00;77668.84;5014361;28;20032;-68
2022/02/20 05:08:56;;;;;;;26.97;8.33;;;;;;;-142.75;100.00;77647.19;5031907;28;20467;-68
2022/02/20 05:11:21;;;;;;;;;;;;;;;-142.75;100.00;77649.16;5032880;28;20033;-67
2022/02/20 05:13:46;;;;;;;21.20;7.47;;;;;;;-142.75;100.00;77637.34;5032119;28;19917;-68
2022/02/20 05:16:12;;;;;;;24.90;9.13;;;;;;;-142.75;100.00;77627.50;5032136;28;20025;-68
2022/02/20 05:18:37;;;;;;;29.80;9.07;;;;;;;-142.75;100.00;77601.91;5031725;28;20436;-68
2022/02/20 05:21:02;;;;;;;22.73;8.43;;;;;;;-142.75;100.00;77582.22;5032246;28;20271;-68
2022/02/20 05:23:28;;;;;;;20.70;8.75;;;;;;;-142.75;100.00;77570.41;5031794;28;20453;-68
2022/02/20 05:25:53;;;;;;;25.85;8.70;;;;;;;-142.75;100.00;77560.56;5014055;28;20455;-68
2022/02/20 05:28:18;;;;;;;29.83;8.82;;;;;;;-142.75;100.00;77560.56;5031471;28;20037;-68
2022/02/20 05:30:44;;;;;;;27.87;11.07;;;;;;;-142.75;100.00;77566.47;5031727;28;20078;-67
2022/02/20 05:33:10;;;;;;;29.60;8.80;;;;;;;-142.75;100.00;77550.72;5031574;28;20290;-68
2022/02/20 05:35:35;;;;;;;31.50;9.15;;;;;;;-142.75;100.00;77546.78;5031745;28;20028;-68
2022/02/20 05:38:00;;;;;;;23.38;8.88;;;;;;;-142.75;100.00;77542.84;5031391;28;20244;-67
2022/02/20 05:40:26;;;;;;;27.58;9.15;;;;;;;-142.75;100.00;77531.03;5031346;28;20567;-68
2022/02/20 05:42:53;;;;;;;30.73;9.80;;;;;;;-142.75;100.00;77527.09;5031858;28;20032;-68
2022/02/20 05:45:18;;;;;;;30.40;9.53;;;;;;;-142.75;100.00;77517.25;5031482;28;20471;-68
2022/02/20 05:47:44;;;;;;;23.92;9.02;;;;;;;-142.75;100.00;77509.38;5031374;28;20021;-68
2022/02/20 05:50:11;;;;;;;32.55;9.02;;;;;;;-142.75;100.00;77495.59;5031069;28;20030;-68
2022/02/20 05:52:36;;;;;;;33.77;8.63;;;;;;;-142.75;100.00;77497.56;5031469;28;20177;-68
2022/02/20 05:55:02;;;;;;;33.45;9.52;;;;;;;-142.75;100.00;77489.69;5031313;28;20033;-68
2022/02/20 05:57:27;;;;;;;35.65;9.13;;;;;;;-142.75;100.00;77470.00;5030995;28;20031;-68
2022/02/20 05:59:53;;;;;;;25.23;8.07;;;;;;;-142.75;100.00;77440.44;5030989;28;20017;-68
2022/02/20 06:02:18;;;;;;;21.48;6.82;;;;;;;-142.75;100.00;77414.84;5030181;28;20638;-68
2022/02/20 06:04:43;;;;;;;28.13;8.10;;;;;;;-142.75;100.00;77397.13;5031184;28;20121;-68
2022/02/20 06:07:10;;;;;;;25.70;7.53;;;;;;;-142.75;100.00;77377.44;5030895;28;20027;-68
2022/02/20 06:09:35;;;;;;;28.33;6.30;;;;;;;-142.75;100.00;77351.84;5030709;28;20541;-67
2022/02/20 06:12:00;;;;;;;24.73;7.28;;;;;;;-142.75;100.00;77334.13;5031372;28;20029;-68
2022/02/20 06:14:26;;;;;;;17.95;6.63;;;;;;;-142.75;100.00;77330.19;5013258;28;20075;-67
2022/02/20 06:16:51;;;;;;;23.33;5.57;;;;;;;-142.75;100.00;77320.34;5030848;28;20030;-68
2022/02/20 06:19:16;;;;;;;25.27;6.87;;;;;;;-142.75;100.00;77318.38;5030665;28;20471;-67
2022/02/20 06:21:42;;;;;;;21.13;5.17;;;;;;;-142.75;100.00;77308.53;5031021;28;20295;-67
2022/02/20 06:24:07;;;;;;;20.80;5.78;;;;;;;-142.75;100.00;77298.69;5030769;28;20333;-68
2022/02/20 06:26:33;;;;;;;31.27;5.43;;;;;;;-142.75;100.00;77284.91;5030522;28;20041;-68
2022/02/20 06:28:59;;;;;;;20.35;5.55;;;;;;;-142.75;100.00;77282.94;5030426;28;20032;-67
2022/02/20 06:31:24;;;;;;;18.35;5.60;;;;;;;-142.75;100.00;77271.13;5030511;28;20033;-68
2022/02/20 06:33:52;;;;;;;24.80;6.27;;;;;;;-142.75;100.00;77261.28;5030405;28;20021;-68
2022/02/20 06:36:18;;;;;;;22.87;6.33;;;;;;;-142.75;100.00;77249.47;5029896;28;20274;-68
2022/02/20 06:38:43;;;;;;;22.92;6.18;;;;;;;-142.75;100.00;77251.44;5030116;28;20430;-67
2022/02/20 06:41:10;;;;;;;25.52;7.72;;;;;;;-142.75;100.00;77243.56;5055282;22;20025;-64
2022/02/20 06:43:36;;;;;;;29.37;5.97;;;;;;;-142.75;100.00;77223.88;5026123;28;20033;-68
2022/02/20 06:46:02;;;;;;;28.17;6.75;;;;;;;-142.75;100.00;77225.84;5029291;28;20590;-68
2022/02/20 06:48:27;;;;;;;31.35;7.15;;;;;;;-142.75;100.00;77216.00;5012131;28;20113;-69
2022/02/20 06:50:53;;;;;;;27.38;6.60;;;;;;;-142.75;100.00;77204.19;5030615;28;20107;-68
2022/02/20 06:53:18;;;;;;;18.90;7.05;;;;;;;-142.75;100.00;77196.31;5040896;28;20051;-67
2022/02/20 06:55:43;;;;;;;33.20;7.50;;;;;;;-142.75;100.00;77184.50;5050111;28;20033;-68
2022/02/20 06:58:08;;;;;;;28.73;7.28;;;;;;;-142.75;100.00;77176.63;5031686;28;20715;-68
2022/02/20 07:00:34;;;;;;;36.75;7.30;;;;;;;-142.75;100.00;77178.59;5050025;28;20070;-68
2022/02/20 07:02:59;;;;;;;33.30;6.80;;;;;;;-142.75;100.00;77156.94;5049820;28;20020;-68
2022/02/20 07:05:24;;;;;;;30.40;6.07;;;;;;;-142.75;100.00;77145.13;5043209;28;21099;-70
2022/02/20 07:07:50;;;;;;;43.78;5.07;;;;;;;-142.75;100.00;77129.38;5031348;28;20279;-67
2022/02/20 07:10:15;;;;;;;39.33;5.55;;;;;;;-142.75;100.00;77101.81;5036666;28;20537;-68
2022/02/20 07:12:40;;;;;;;36.15;4.90;;;;;;;-142.75;100.00;77095.91;5047979;28;20032;-68
2022/02/20 07:15:06;;;;;;;38.33;5.97;;;;;;;-142.75;100.00;77082.13;5042796;28;20494;-68
2022/02/20 07:17:32;;;;;;;37.97;4.60;;;;;;;-142.75;100.00;77070.31;5020792;28;20043;-68
2022/02/20 07:19:58;;;;;;;41.05;4.85;;;;;;;-142.75;100.00;77066.38;5049391;28;20024;-67
2022/02/20 07:22:24;;;;;;;43.03;4.70;;;;;;;-142.75;100.00;77066.38;5049706;28;20091;-68
2022/02/20 07:24:50;;;;;;;28.52;4.47;;;;;;;-142.75;100.00;77050.63;5050171;28;20486;-68
2022/02/20 07:27:15;;;;;;;37.92;5.13;;;;;;;-142.75;100.00;77046.69;5035445;28;20028;-68
2022/02/20 07:29:40;;;;;;;51.20;5.97;;;;;;;-142.75;100.00;77034.88;5029945;28;20048;-68
2022/02/20 07:32:06;;;;;;;46.87;5.37;;;;;;;-142.75;100.00;77038.81;5012506;28;20033;-68
2022/02/20 07:34:32;;;;;;;53.63;5.32;;;;;;;-142.75;100.00;77028.97;5030354;28;20268;-68
2022/02/20 07:36:58;;;;;;;44.53;6.40;;;;;;;-142.75;100.00;77015.19;5030329;28;20108;-68
2022/02/20 07:39:23;;;;;;;47.00;4.88;;;;;;;-142.75;100.00;77011.25;5012012;28;20096;-68
2022/02/20 07:41:48;;;;;;;55.58;5.57;;;;;;;-142.75;100.00;77003.38;5030267;28;20095;-68
2022/02/20 07:44:14;;;;;;;52.42;6.25;;;;;;;-142.75;100.00;76995.50;5041548;28;20128;-68
2022/02/20 07:46:39;;;;;;;54.70;5.77;;;;;;;-142.75;100.00;76993.53;5049617;28;20028;-68
2022/02/20 07:49:04;;;;;;;53.23;6.83;;;;;;;-142.75;100.00;76993.53;5040924;28;20322;-68
2022/02/20 07:51:30;;;;;;;43.88;6.20;;;;;;;-142.75;100.00;76987.63;5030057;28;20522;-68
2022/02/20 07:53:55;;;;;;;49.17;5.95;;;;;;;-142.75;100.00;76997.47;5030139;28;20021;-67
2022/02/20 07:56:21;;;;;;;57.65;7.57;;;;;;;-142.75;100.00;76993.53;5030072;28;20029;-68
2022/02/20 07:58:46;;;;;;;54.75;6.70;;;;;;;-142.75;100.00;76981.72;5012128;28;20111;-68
2022/02/20 08:01:12;;;;;;;73.97;7.00;;;;;;;-142.75;100.00;76985.66;5033356;28;20156;-68
2022/02/20 08:03:38;;;;;;;;;;;;;;;-142.75;100.00;76991.56;5050220;28;20762;-68
2022/02/20 08:06:04;;;;;;;50.30;6.77;;;;;;;-142.75;100.00;76981.72;5037087;28;20008;-68
2022/02/20 08:08:31;;;;;;;47.87;6.07;;;;;;;-142.75;100.00;76991.56;5037203;28;20082;-68
2022/02/20 08:10:57;;;;;;;56.70;7.43;;;;;;;-142.75;100.00;76991.56;5033565;28;20220;-67
2022/02/20 08:13:23;;;;;;;56.63;7.60;;;;;;;-142.75;100.00;76987.63;5020823;28;20383;-67
2022/02/20 08:15:48;;;;;;;53.15;7.18;;;;;;;-142.75;100.00;76975.81;5050390;28;20064;-69
2022/02/20 08:18:14;;;;;;;58.58;7.95;;;;;;;-142.75;100.00;76975.81;5050154;28;20032;-69
2022/02/20 08:20:40;;;;;;;60.58;8.43;;;;;;;-142.75;100.00;76962.03;5050462;28;20414;-67
2022/02/20 08:23:06;;;;;;;48.95;6.88;;;;;;;-142.75;100.00;76962.03;5050222;28;20079;-68
2022/02/20 08:25:32;;;;;;;54.80;7.80;;;;;;;-142.75;100.00;76962.03;5050705;28;20499;-68
2022/02/20 08:27:57;;;;;;;53.33;6.80;;;;;;;-142.75;100.00;76952.19;5045017;28;20060;-68
2022/02/20 08:30:23;;;;;;;53.67;6.82;;;;;;;-142.75;100.00;76964.00;5034380;28;20065;-68
2022/02/20 08:32:48;;;;;;;61.50;8.73;;;;;;;-142.75;100.00;76948.25;5034038;28;20028;-68
2022/02/20 08:35:14;;;;;;;51.00;7.13;;;;;;;-142.75;100.00;76946.28;5021504;28;20032;-69
2022/02/20 08:37:43;;;;;;;52.70;6.50;;;;;;;-142.75;100.00;76930.53;5036075;28;20028;-69
2022/02/20 08:40:09;;;;;;;50.27;7.20;;;;;;;-142.75;100.00;76928.56;5053752;28;20017;-67
2022/02/20 08:42:35;;;;;;;49.45;7.43;;;;;;;-142.75;100.00;76932.50;5053677;28;20028;-68
2022/02/20 08:45:00;;;;;;;48.35;6.00;;;;;;;-142.75;100.00;76920.69;5054135;28;20027;-68
2022/02/20 08:47:26;;;;;;;54.20;6.95;;;;;;;-142.75;100.00;76926.59;5053666;28;20071;-68
2022/02/20 08:49:52;;;;;;;45.72;7.10;;;;;;;-142.75;100.00;76920.69;5035687;28;20024;-68
2022/02/20 08:52:17;;;;;;;;;;;;;;;-142.75;100.00;76916.75;5054062;28;20112;-68
2022/02/20 08:54:42;;;;;;;56.80;6.23;;;;;;;-142.75;100.00;76920.69;5038808;28;20020;-68
2022/02/20 08:57:08;;;;;;;56.07;7.93;;;;;;;-142.75;100.00;76902.97;5037890;28;20025;-68
2022/02/20 08:59:35;;;;;;;51.47;6.60;;;;;;;-142.75;100.00;76901.00;5033457;28;20276;-68
2022/02/20 09:02:00;;;;;;;58.78;7.47;;;;;;;-142.75;100.00;76885.25;5015715;28;20021;-68
2022/02/20 09:04:25;;;;;;;47.35;7.38;;;;;;;-142.75;100.00;76873.44;5047648;28;20440;-68
2022/02/20 09:06:53;;;;;;;53.70;7.25;;;;;;;-142.75;100.00;76871.47;5041259;28;20376;-69
2022/02/20 09:09:21;;;;;;;63.13;8.07;;;;;;;-142.75;100.00;76873.44;5022060;28;20407;-68
2022/02/20 09:11:46;;;;;;;41.77;6.10;;;;;;;-142.75;100.00;76875.41;5031128;28;20023;-68
2022/02/20 09:14:11;;;;;;;58.22;8.57;;;;;;;-142.75;100.00;76881.31;5049424;28;20032;-68
2022/02/20 09:16:36;;;;;;;43.40;7.40;;;;;;;-142.75;100.00;76847.84;5035369;28;20617;-68
2022/02/20 09:19:03;;;;;;;51.70;7.00;;;;;;;-142.75;100.00;76855.72;5049229;28;20259;-69
2022/02/20 09:21:32;;;;;;;43.83;6.50;;;;;;;-142.75;100.00;76838.00;5037027;28;20284;-68
2022/02/20 09:23:58;;;;;;;45.60;6.47;;;;;;;-142.75;100.00;76845.88;5032377;28;20017;-68
2022/02/20 09:26:24;;;;;;;43.00;7.32;;;;;;;-142.75;100.00;76836.03;5044974;28;20580;-68
2022/02/20 09:28:49;;;;;;;60.30;8.60;;;;;;;-142.75;100.00;76845.88;5052799;28;20033;-68
2022/02/20 09:31:15;;;;;;;58.25;6.78;;;;;;;-142.75;100.00;76834.06;5051962;28;20020;-68
2022/02/20 09:33:40;;;;;;;56.40;7.10;;;;;;;-142.75;100.00;76818.31;5034883;28;20102;-68
2022/02/20 09:36:09;;;;;;;53.95;7.15;;;;;;;-142.75;100.00;76826.19;5013430;28;20026;-68
2022/02/20 09:38:36;;;;;;;54.25;7.93;;;;;;;-142.75;100.00;76826.19;5027199;28;20031;-67
2022/02/20 09:41:05;;;;;;;56.35;7.35;;;;;;;-142.75;100.00;76812.41;5034977;28;20032;-67
2022/02/20 09:43:32;;;;;;;48.45;7.38;;;;;;;-142.75;100.00;76824.22;5026490;28;20394;-67
2022/02/20 09:45:58;;;;;;;45.47;7.78;;;;;;;-142.75;100.00;76812.41;5046038;28;20025;-67
2022/02/20 09:48:23;;;;;;;49.65;7.60;;;;;;;-142.75;100.00;76818.31;5032430;28;20044;-67
2022/02/20 09:50:49;;;;;;;51.25;7.35;;;;;;;-142.75;100.00;76810.44;5015011;28;20021;-67
2022/02/20 09:53:14;;;;;;;47.70;8.52;;;;;;;-142.75;100.00;76800.63;5021042;28;20021;-69
2022/02/20 09:55:44;;;;;;;44.60;7.20;;;;;;;-142.75;100.00;76810.44;5053617;28;20025;-68
2022/02/20 09:58:09;;;;;;;48.73;8.47;;;;;;;-142.75;100.00;76806.50;5052388;28;20017;-68
2022/02/20 10:00:35;;;;;;;56.92;8.27;;;;;;;-142.75;100.00;76802.56;5034541;28;20021;-68
2022/02/20 10:03:02;;;;;;;58.97;7.90;;;;;;;-142.75;100.00;76812.41;5034506;28;20025;-69
2022/02/20 10:05:28;;;;;;;60.08;8.48;;;;;;;-142.75;100.00;76822.25;5052348;28;20032;-68
2022/02/20 10:07:55;;;;;;;41.50;7.63;;;;;;;-142.75;100.00;76814.38;5051968;28;20029;-69
2022/02/20 10:10:26;;;;;;;59.45;8.25;;;;;;;-142.75;100.00;76828.16;5052306;28;20044;-69
2022/02/20 10:13:00;;;;;;;51.30;7.85;;;;;;;-142.75;100.00;76830.13;5034736;28;20036;-67
2022/02/20 10:15:30;;;;;;;52.85;7.68;;;;;;;-142.75;100.00;76832.09;5041978;28;20033;-67
2022/02/20 10:18:10;;;;;;;54.38;7.47;;;;;;;-142.75;100.00;76847.84;5014958;28;20674;-67
2022/02/20 10:20:35;;;;;;;58.95;8.73;;;;;;;-142.75;100.00;76865.56;5014442;28;20067;-69
2022/02/20 10:23:07;;;;;;;47.88;8.27;;;;;;;-142.75;100.00;76855.72;5038303;28;20459;-69
2022/02/20 10:25:33;;;;;;;57.25;7.57;;;;;;;-142.75;100.00;76865.56;5034221;28;20021;-69
2022/02/20 10:27:58;;;;;;;46.30;6.38;;;;;;;-142.75;100.00;76865.56;5051485;28;20430;-69
2022/02/20 10:30:28;;;;;;;48.97;7.60;;;;;;;-142.75;100.00;76865.56;5052010;28;20591;-68
2022/02/20 10:33:22;;;;;;;53.27;8.33;;;;;;;-142.75;100.00;76861.63;5051537;28;20032;-68
2022/02/20 10:35:49;;;;;;;58.10;9.03;;;;;;;-142.75;100.00;76859.66;5049077;28;20045;-69
2022/02/20 10:38:18;;;;;;;56.10;8.98;;;;;;;-142.75;100.00;76865.56;5033466;28;20013;-68
2022/02/20 10:40:47;;;;;;;40.17;6.93;;;;;;;-142.75;100.00;76851.78;5050909;28;20033;-68
2022/02/20 10:43:37;;;;;;;57.27;8.43;;;;;;;-142.75;100.00;76853.75;5043391;28;20079;-69
2022/02/20 10:46:16;;;;;;;48.60;7.85;;;;;;;-142.75;100.00;76849.81;5049159;28;20040;-69
2022/02/20 10:48:46;;;;;;;56.58;7.65;;;;;;;-142.75;100.00;76853.75;5043382;28;20029;-68
2022/02/20 10:51:13;;;;;;;51.47;7.28;;;;;;;-142.75;100.00;76855.72;5030998;28;20068;-68
2022/02/20 10:53:40;;;;;;;58.10;7.32;;;;;;;-142.75;100.00;76843.91;5031477;28;20029;-68
2022/02/20 10:56:05;;;;;;;54.08;8.15;;;;;;;-142.75;100.00;76851.78;5013722;28;20029;-68
2022/02/20 10:58:33;;;;;;;50.63;7.97;;;;;;;-142.75;100.00;76839.97;5039261;28;20047;-67
2022/02/20 11:01:01;;;;;;;48.00;7.15;;;;;;;-142.75;100.00;76849.81;5021507;28;20111;-68